الصفحة الرئيسية
METAR-TAF:

METAR-TAF

مطار :

مطار سيبولان

Dumaguete, الفلبين

دائرة عرض: 09-20-01N, خط طول: 123-18-02E, ارتفاع: 5 متر

مراقبة الطقس الحالي

تاريخ ووقت الإصدار 3ساعات و 1 دقيقة قبل الساعة 15:00UTC
ريح 4 عقدة من الشمال الشرقي
درجة الحرارة 27°درجة مئوية
الرطوبة 84%
ضغط 1011 hPa
الرؤية 10 كم أو أكثر
غيوم قليلة على ارتفاع 1500 قدم

METAR: RPVD 011500Z 04004KT 9999 FEW015 27/24 Q1011 RMK A2985

زمن: 02:01 (18:01 UTC)

توقعات

تاريخ ووقت الإصدار 1ساعة و 1 دقيقة قبل الساعة 17:00UTC
التوقعات صالحة من01 الساعة 18 UTC إلى 02 الساعة 18 UTC
ريح 8 عقدة من الشمال الشرقي
الرؤية 10 كم أو أكثر
غيوم قليلة على ارتفاع 1500 قدم
مؤقت
من 01 الساعة 18 UTC إلى 01 الساعة 24 UTC
غيوم متفرقة على ارتفاع 1500 قدم
غيوم مفككة على ارتفاع 22000 قدم

TAF: RPVD 011700Z 0118/0218 04008KT 9999 FEW015 TEMPO 0118/0124 SCT015 BKN220

أرصاد الطقس والتوقعات من أكثر من 4000 مطار (تقارير الطقس للمطار METAR والتنبؤ بالطقس بالمطارTAF).

المحطات المتاحة هي النقط الصفراء والحمراء على الخريطة.

حرك المؤشر فوق النقطة لمعرفة اسم المحطة.

ثم انقر لمعرفة أرصاد وتوقعات الطقس.

لتغيير الخارطة: اضغط على الأزرار الخضراء مع رمز الصليب الأسود للتكبير. على الزر الأخضر مع شرطة للتصغير، أو على الأسهم الخضراء للخرائط المجاورة.


METAR-TAF: